Time;durP1;ratioP1;P1;durP2;ratioP2;P2;SDS_P1;SDS_P2;PMS_P1;PMS_P2;Temp;Humidity;BMP_temperature;BMP_pressure;BME280_temperature;BME280_humidity;BME280_pressure;Samples;Min_cycle;Max_cycle;Signal;HPM_P1;HPM_P2
2023/07/13 00:01:18;;;;;;;111.20;19.05;;;;;;;27.34;45.55;101180.53;21075155;28;20048;-74
2023/07/13 00:11:19;;;;;;;178.57;26.20;;;;;;;27.42;45.61;101180.94;21071167;28;20509;-76
2023/07/13 00:21:20;;;;;;;155.85;22.83;;;;;;;27.35;45.45;101176.59;21073423;28;20044;-76
2023/07/13 00:31:30;;;;;;;92.45;18.33;;;;;;;27.50;45.46;101188.63;21072824;28;20073;-75
2023/07/13 00:41:36;;;;;;;69.18;15.98;;;;;;;27.51;45.61;101191.09;21061292;28;20044;-74
2023/07/13 00:51:44;;;;;;;54.70;14.82;;;;;;;27.40;45.86;101157.94;21035848;28;20490;-77
2023/07/13 01:01:46;;;;;;;57.55;15.05;;;;;;;27.54;45.24;101184.00;21073757;28;20044;-75
2023/07/13 01:11:48;;;;;;;49.85;13.38;;;;;;;27.58;45.40;101190.63;21056783;28;20041;-74
2023/07/13 01:21:53;;;;;;;39.50;14.43;;;;;;;27.57;45.26;101194.59;21056283;28;20089;-73
2023/07/13 01:31:54;;;;;;;29.90;12.60;;;;;;;27.57;44.84;101191.78;21072439;28;20043;-74
2023/07/13 01:41:55;;;;;;;32.70;13.75;;;;;;;27.40;44.35;101172.00;21077635;28;20036;-74
2023/07/13 01:51:57;;;;;;;26.00;12.38;;;;;;;27.51;43.58;101195.88;21059553;28;20098;-74
2023/07/13 02:01:58;;;;;;;25.08;11.45;;;;;;;27.54;43.55;101196.09;21079091;28;20553;-75
2023/07/13 02:12:00;;;;;;;31.65;13.05;;;;;;;27.42;43.10;101175.31;21084532;28;20032;-74
2023/07/13 02:22:01;;;;;;;22.23;11.15;;;;;;;27.51;42.80;101191.09;21083891;28;20062;-74
2023/07/13 02:32:03;;;;;;;15.55;9.80;;;;;;;27.40;42.84;101192.50;21083299;28;20475;-74
2023/07/13 02:42:07;;;;;;;19.92;10.70;;;;;;;27.54;42.69;101203.69;21084552;28;20364;-73
2023/07/13 02:52:08;;;;;;;17.30;10.38;;;;;;;27.49;42.47;101192.56;21060010;28;20044;-74
2023/07/13 03:02:10;;;;;;;14.70;9.90;;;;;;;27.57;42.65;101203.03;21082172;28;20036;-74
2023/07/13 03:12:11;;;;;;;16.60;10.55;;;;;;;27.48;42.40;101182.47;21078657;28;20048;-74
2023/07/13 03:22:16;;;;;;;19.83;9.88;;;;;;;27.53;41.81;101187.94;21080956;28;20044;-73
2023/07/13 03:32:22;;;;;;;14.27;9.40;;;;;;;27.47;42.30;101181.63;21080129;28;20547;-75
2023/07/13 03:42:23;;;;;;;13.82;9.05;;;;;;;27.49;42.31;101198.16;21077804;28;20048;-74
2023/07/13 03:52:25;;;;;;;12.60;9.57;;;;;;;27.54;42.41;101212.13;21078684;28;20093;-74
2023/07/13 04:02:26;;;;;;;12.52;9.07;;;;;;;27.53;42.36;101205.66;21077607;28;20527;-72
2023/07/13 04:12:27;;;;;;;11.93;8.68;;;;;;;27.47;42.23;101189.25;21078929;28;20472;-74
2023/07/13 04:22:29;;;;;;;9.40;8.45;;;;;;;27.51;42.47;101187.47;21077868;28;20356;-73
2023/07/13 04:32:30;;;;;;;11.23;8.32;;;;;;;27.54;42.09;101195.25;21076123;28;20028;-72
2023/07/13 04:42:34;;;;;;;13.25;8.48;;;;;;;27.50;41.72;101185.81;21076833;28;20043;-73
2023/07/13 04:52:35;;;;;;;10.65;8.75;;;;;;;27.53;41.83;101180.34;21076184;28;20028;-74
2023/07/13 05:02:38;;;;;;;11.35;8.32;;;;;;;27.52;41.84;101161.00;21075598;28;20040;-75
2023/07/13 05:12:43;;;;;;;10.30;7.80;;;;;;;27.50;41.68;101135.22;21076445;28;20044;-75
2023/07/13 05:22:47;;;;;;;9.05;7.80;;;;;;;27.49;41.19;101127.91;21089781;28;20054;-74
2023/07/13 05:32:49;;;;;;;10.27;8.05;;;;;;;27.48;41.68;101117.81;21091016;28;20395;-73
2023/07/13 05:42:50;;;;;;;9.98;8.32;;;;;;;27.48;41.29;101106.56;21090562;28;20081;-74
2023/07/13 05:52:52;;;;;;;9.15;7.43;;;;;;;27.47;41.70;101104.94;21087628;28;20039;-75
2023/07/13 06:02:53;;;;;;;8.48;7.55;;;;;;;27.44;41.26;101116.81;21089056;28;20040;-74
2023/07/13 06:12:54;;;;;;;8.40;7.60;;;;;;;27.46;41.49;101125.75;21088048;28;20036;-74
2023/07/13 06:22:56;;;;;;;8.20;7.07;;;;;;;27.31;41.36;101088.47;21087040;28;20467;-74
2023/07/13 06:33:00;;;;;;;8.05;7.10;;;;;;;27.45;41.49;101096.00;21085596;28;20032;-73
2023/07/13 06:43:01;;;;;;;10.15;7.07;;;;;;;27.37;41.21;101086.34;21086147;28;20094;-73
2023/07/13 06:53:03;;;;;;;9.00;7.03;;;;;;;27.24;41.34;101067.59;21084321;28;20102;-72
2023/07/13 07:03:04;;;;;;;7.53;6.68;;;;;;;27.42;41.05;101096.63;21082853;28;20044;-74
2023/07/13 07:13:06;;;;;;;8.57;7.15;;;;;;;27.43;41.13;101087.03;21083033;28;20070;-74
2023/07/13 07:23:07;;;;;;;7.90;7.10;;;;;;;27.33;41.03;101100.22;21081977;28;20040;-73
2023/07/13 07:33:08;;;;;;;7.60;6.88;;;;;;;27.30;40.91;101098.03;21080511;28;20043;-73
2023/07/13 07:43:12;;;;;;;7.55;6.85;;;;;;;27.34;40.93;101096.25;21081041;28;20032;-75
2023/07/13 07:53:13;;;;;;;6.50;5.88;;;;;;;27.37;41.26;101086.34;21080203;28;20040;-74
2023/07/13 08:03:15;;;;;;;7.32;6.63;;;;;;;27.36;41.18;101079.09;21078805;28;20070;-74
2023/07/13 08:13:16;;;;;;;7.80;7.00;;;;;;;27.31;40.99;101091.28;21078681;28;20044;-75
2023/07/13 08:23:18;;;;;;;7.18;6.47;;;;;;;27.31;40.71;101108.16;21078450;28;20109;-73
2023/07/13 08:33:20;;;;;;;7.28;6.53;;;;;;;27.32;41.01;101115.41;21077836;28;20540;-74
2023/07/13 08:43:50;;;;;;;7.63;6.05;;;;;;;27.26;40.96;101127.09;21076020;28;20101;-72
2023/07/13 08:53:56;;;;;;;6.60;6.00;;;;;;;27.29;41.04;101132.91;21075042;28;20044;-73
2023/07/13 09:04:11;;;;;;;6.78;6.18;;;;;;;27.31;40.86;101136.25;21076083;28;20078;-73
2023/07/13 09:14:37;;;;;;;6.40;5.80;;;;;;;27.23;40.57;101139.00;21075089;28;20070;-73
2023/07/13 09:24:48;;;;;;;6.60;6.00;;;;;;;27.26;40.31;101132.72;21074554;28;20032;-73
2023/07/13 09:34:54;;;;;;;6.35;5.75;;;;;;;27.18;40.57;101130.69;21074877;28;20418;-73
2023/07/13 09:45:06;;;;;;;6.13;5.53;;;;;;;27.08;40.48;101112.09;21073810;28;20052;-75
2023/07/13 09:55:23;;;;;;;6.20;5.68;;;;;;;27.21;40.72;101125.25;21073034;28;20433;-74
2023/07/13 10:05:25;;;;;;;6.10;5.50;;;;;;;26.79;40.33;101057.16;21079515;28;20077;-74
2023/07/13 10:15:30;;;;;;;6.18;5.63;;;;;;;27.22;40.28;101120.47;21087656;28;20085;-73
2023/07/13 10:25:36;;;;;;;6.20;5.60;;;;;;;27.20;40.49;101126.41;21085379;28;20157;-74
2023/07/13 10:35:41;;;;;;;6.35;5.75;;;;;;;27.09;40.24;101116.59;21085785;28;20031;-73
2023/07/13 10:45:51;;;;;;;6.10;5.55;;;;;;;27.15;40.11;101118.09;21086862;28;20491;-73
2023/07/13 10:55:53;;;;;;;6.78;5.30;;;;;;;27.18;40.00;101114.66;21086206;28;20058;-74
2023/07/13 11:06:15;;;;;;;5.20;4.63;;;;;;;27.13;39.88;101117.59;21083700;28;20048;-73
2023/07/13 11:16:19;;;;;;;6.18;5.60;;;;;;;27.17;39.76;101114.97;21082789;28;20039;-73
2023/07/13 11:26:39;;;;;;;5.85;5.30;;;;;;;27.15;39.98;101112.47;21081464;28;20499;-73
2023/07/13 11:36:44;;;;;;;5.72;5.20;;;;;;;27.16;39.73;101118.94;21080401;28;20032;-73
2023/07/13 11:46:48;;;;;;;5.93;5.35;;;;;;;26.99;40.16;101103.59;21071649;28;20028;-74
2023/07/13 11:56:53;;;;;;;5.85;5.35;;;;;;;27.09;39.82;101117.41;21072983;28;20024;-73
2023/07/13 12:07:04;;;;;;;5.22;4.72;;;;;;;27.14;40.18;101118.44;21076430;28;20097;-74
2023/07/13 12:17:35;;;;;;;5.32;4.82;;;;;;;27.11;40.44;101119.88;21076942;28;20042;-73
2023/07/13 12:27:40;;;;;;;6.70;5.22;;;;;;;27.06;40.41;101109.56;21062887;28;20117;-73
2023/07/13 12:37:50;;;;;;;7.85;5.10;;;;;;;27.17;40.98;101121.44;21072662;28;20438;-71
2023/07/13 12:48:12;;;;;;;6.15;4.97;;;;;;;27.14;40.83;101102.41;21072994;28;20032;-70
2023/07/13 12:58:21;;;;;;;7.32;5.07;;;;;;;27.09;40.80;101086.50;21073307;28;20040;-73
2023/07/13 13:08:22;;;;;;;7.70;5.40;;;;;;;27.10;40.73;101090.97;21074192;28;20039;-73
2023/07/13 13:18:24;;;;;;;6.45;5.35;;;;;;;27.16;40.94;101076.78;21074109;28;20058;-73
2023/07/13 13:28:26;;;;;;;6.65;5.00;;;;;;;27.12;40.82;101059.75;21067590;28;20052;-73
2023/07/13 13:38:28;;;;;;;8.38;5.20;;;;;;;27.10;40.83;101036.78;21077423;28;20416;-73
2023/07/13 13:48:35;;;;;;;11.30;5.22;;;;;;;27.19;41.17;101026.44;21068613;28;20032;-73
2023/07/13 13:58:37;;;;;;;9.02;6.07;;;;;;;27.25;41.23;101035.53;21084406;28;20040;-73
2023/07/13 14:08:38;;;;;;;9.07;5.47;;;;;;;27.12;41.21;101014.81;21086053;28;20043;-73
2023/07/13 14:18:40;;;;;;;13.70;6.32;;;;;;;27.23;41.25;101015.38;21085924;28;20036;-73
2023/07/13 14:28:44;;;;;;;10.65;6.13;;;;;;;26.79;42.06;100925.22;21085161;28;20479;-72
2023/07/13 14:38:45;;;;;;;12.45;5.93;;;;;;;27.25;42.07;100987.78;21082578;28;20044;-71
2023/07/13 14:48:52;;;;;;;18.30;7.32;;;;;;;27.31;42.34;100978.91;21081123;28;20031;-71
2023/07/13 14:58:53;;;;;;;15.57;6.60;;;;;;;27.27;42.22;100960.19;21079723;28;20052;-72
2023/07/13 15:08:55;;;;;;;19.33;6.93;;;;;;;27.22;42.47;100944.31;21080816;28;20028;-73
2023/07/13 15:19:02;;;;;;;14.07;7.85;;;;;;;27.28;42.69;100957.06;21080091;28;20077;-73
2023/07/13 15:29:04;;;;;;;14.53;7.27;;;;;;;27.26;42.57;100953.75;21075862;28;20047;-72
2023/07/13 16:06:29;;;;;;;203.95;26.80;;;;;;;26.34;46.88;100939.28;21212920;27;1775842;-72
2023/07/13 16:16:34;;;;;;;210.75;29.58;;;;;;;27.00;45.29;100927.50;21174807;28;20561;-71
2023/07/13 16:26:41;;;;;;;339.50;52.20;;;;;;;27.28;45.37;100928.13;21115128;28;20041;-71
2023/07/13 16:36:45;;;;;;;;;;;;;;;27.43;45.41;100915.63;21148916;28;20372;-72
2023/07/13 16:46:49;;;;;;;361.90;51.28;;;;;;;27.52;45.18;100894.00;21148062;28;20366;-77
2023/07/13 16:56:53;;;;;;;376.33;51.35;;;;;;;27.60;45.88;100873.50;21158982;28;20474;-73
2023/07/13 17:06:57;;;;;;;391.15;56.05;;;;;;;27.64;46.16;100870.88;21144950;28;20384;-74
2023/07/13 17:16:58;;;;;;;296.35;46.08;;;;;;;27.60;45.62;100862.25;21092492;28;20032;-74
2023/07/13 17:27:00;;;;;;;264.10;42.13;;;;;;;27.60;45.74;100854.66;21086905;28;20028;-76
2023/07/13 17:37:01;;;;;;;513.22;92.45;;;;;;;27.62;45.68;100848.69;21085520;28;20479;-75
2023/07/13 17:47:05;;;;;;;407.30;74.00;;;;;;;27.64;45.94;100839.94;21085897;28;20101;-75
2023/07/13 17:57:12;;;;;;;315.15;58.80;;;;;;;27.66;45.42;100821.59;21165897;28;20047;-74
2023/07/13 18:07:17;;;;;;;269.45;52.30;;;;;;;27.73;45.25;100818.31;21100364;28;20040;-74
2023/07/13 18:17:19;;;;;;;234.25;48.78;;;;;;;27.76;45.08;100814.84;21082836;28;20052;-75
2023/07/13 18:27:21;;;;;;;190.38;40.78;;;;;;;27.64;45.38;100783.72;21077144;28;20032;-76
2023/07/13 18:37:22;;;;;;;453.52;64.00;;;;;;;27.67;46.46;100783.88;21070578;28;20028;-77
2023/07/13 18:47:34;;;;;;;;;;;;;;;;;;;;;
2023/07/13 18:57:36;;;;;;;296.65;46.13;;;;;;;28.02;47.09;100795.13;21072810;28;20044;-73
2023/07/13 19:07:37;;;;;;;243.38;39.53;;;;;;;27.99;47.49;100788.19;21078076;28;20105;-71
2023/07/13 19:17:39;;;;;;;848.95;260.23;;;;;;;27.99;47.95;100778.91;21075581;28;20040;-72
2023/07/13 19:27:40;;;;;;;1657.60;528.20;;;;;;;28.06;48.22;100779.25;21075157;28;20032;-73
2023/07/13 19:37:42;;;;;;;1210.80;418.15;;;;;;;27.95;47.40;100772.31;21075036;28;20040;-75
2023/07/13 19:47:44;;;;;;;978.63;363.23;;;;;;;27.99;46.50;100785.38;21077174;28;20020;-74
2023/07/13 19:57:46;;;;;;;887.33;327.77;;;;;;;27.87;46.11;100765.56;21076506;28;20081;-74
2023/07/13 20:07:55;;;;;;;755.90;289.48;;;;;;;27.99;45.68;100779.75;21075250;28;20048;-75
2023/07/13 20:17:58;;;;;;;671.72;259.15;;;;;;;27.99;45.49;100795.78;21076085;28;20036;-74
2023/07/13 20:28:06;;;;;;;587.08;231.98;;;;;;;27.97;44.88;100782.06;21075408;28;20467;-75
2023/07/13 20:38:11;;;;;;;552.88;208.75;;;;;;;27.93;44.71;100769.84;21073507;28;20040;-74
2023/07/13 20:48:19;;;;;;;489.25;184.88;;;;;;;27.98;44.59;100760.41;21080803;28;20097;-75
2023/07/13 20:58:20;;;;;;;465.35;167.40;;;;;;;27.58;44.54;100696.75;21089463;28;20032;-74
2023/07/13 21:08:24;;;;;;;433.27;153.70;;;;;;;27.97;43.94;100753.13;21087327;28;20090;-74
2023/07/13 21:18:25;;;;;;;408.20;142.30;;;;;;;27.83;43.76;100709.16;21088032;28;20028;-74
2023/07/13 21:28:29;;;;;;;392.80;136.43;;;;;;;27.97;43.52;100739.88;21087437;28;20051;-74
2023/07/13 21:38:39;;;;;;;343.98;121.75;;;;;;;27.84;43.64;100733.28;21086337;28;20032;-75
2023/07/13 21:48:41;;;;;;;308.52;114.63;;;;;;;27.97;43.14;100753.13;21084353;28;20044;-75
2023/07/13 21:58:42;;;;;;;279.50;100.55;;;;;;;27.95;43.30;100744.19;21084755;28;20085;-75
2023/07/13 22:08:44;;;;;;;277.10;99.20;;;;;;;27.92;43.18;100736.44;21079393;28;20491;-74
2023/07/13 22:18:47;;;;;;;238.32;90.68;;;;;;;27.94;43.33;100720.84;21079620;28;20036;-75
2023/07/13 22:28:53;;;;;;;214.68;83.38;;;;;;;27.96;43.39;100737.41;21079178;28;20043;-75
2023/07/13 22:38:58;;;;;;;202.98;78.53;;;;;;;27.96;43.41;100726.16;21078829;28;20044;-74
2023/07/13 22:49:04;;;;;;;181.57;70.63;;;;;;;28.03;43.19;100735.72;21077500;28;20040;-74
2023/07/13 22:59:05;;;;;;;163.48;67.60;;;;;;;27.96;43.33;100735.44;21079742;28;20035;-75
2023/07/13 23:09:14;;;;;;;152.43;60.42;;;;;;;28.04;43.08;100731.78;21078468;28;20067;-76
2023/07/13 23:19:47;;;;;;;150.52;57.65;;;;;;;27.96;43.44;100734.59;21078829;28;20051;-75
2023/07/13 23:29:51;;;;;;;137.85;54.95;;;;;;;28.01;43.38;100728.81;21054449;28;20097;-75
2023/07/13 23:39:55;;;;;;;131.43;52.10;;;;;;;27.92;42.68;100739.25;21077656;28;20039;-74
2023/07/13 23:49:57;;;;;;;113.65;50.28;;;;;;;27.86;43.08;100735.78;21075252;28;20032;-74
2023/07/13 23:59:58;;;;;;;108.18;47.40;;;;;;;27.95;42.60;100761.06;21075590;28;20048;-74
